sensor_id;sensor_type;location;lat;lon;timestamp;P1;durP1;ratioP1;P2;durP2;ratioP2
46719;SDS011;32452;51.382;-0.002;2023-03-01T00:01:43;17.85;;;10.15;;
46719;SDS011;32452;51.382;-0.002;2023-03-01T00:04:29;17.55;;;10.52;;
46719;SDS011;32452;51.382;-0.002;2023-03-01T00:07:14;18.85;;;10.82;;
46719;SDS011;32452;51.382;-0.002;2023-03-01T00:10:00;17.05;;;11.02;;
46719;SDS011;32452;51.382;-0.002;2023-03-01T00:12:45;17.33;;;10.07;;
46719;SDS011;32452;51.382;-0.002;2023-03-01T00:15:31;21.15;;;11.13;;
46719;SDS011;32452;51.382;-0.002;2023-03-01T00:18:17;18.73;;;11.32;;
46719;SDS011;32452;51.382;-0.002;2023-03-01T00:21:02;17.75;;;10.55;;
46719;SDS011;32452;51.382;-0.002;2023-03-01T00:23:48;20.63;;;11.10;;
46719;SDS011;32452;51.382;-0.002;2023-03-01T00:26:34;18.70;;;10.68;;
46719;SDS011;32452;51.382;-0.002;2023-03-01T00:29:19;21.55;;;12.05;;
46719;SDS011;32452;51.382;-0.002;2023-03-01T00:32:05;18.45;;;11.55;;
46719;SDS011;32452;51.382;-0.002;2023-03-01T00:34:50;20.13;;;12.15;;
46719;SDS011;32452;51.382;-0.002;2023-03-01T00:37:39;20.40;;;12.07;;
46719;SDS011;32452;51.382;-0.002;2023-03-01T00:40:28;20.33;;;12.68;;
46719;SDS011;32452;51.382;-0.002;2023-03-01T00:43:15;23.15;;;12.23;;
46719;SDS011;32452;51.382;-0.002;2023-03-01T00:46:01;19.08;;;12.18;;
46719;SDS011;32452;51.382;-0.002;2023-03-01T00:48:47;22.88;;;12.90;;
46719;SDS011;32452;51.382;-0.002;2023-03-01T00:51:33;18.90;;;11.57;;
46719;SDS011;32452;51.382;-0.002;2023-03-01T00:54:19;19.90;;;12.13;;
46719;SDS011;32452;51.382;-0.002;2023-03-01T00:57:04;20.70;;;11.77;;
46719;SDS011;32452;51.382;-0.002;2023-03-01T00:59:49;19.17;;;12.55;;
46719;SDS011;32452;51.382;-0.002;2023-03-01T01:02:36;20.92;;;11.68;;
46719;SDS011;32452;51.382;-0.002;2023-03-01T01:05:22;19.55;;;11.55;;
46719;SDS011;32452;51.382;-0.002;2023-03-01T01:08:07;21.30;;;12.88;;
46719;SDS011;32452;51.382;-0.002;2023-03-01T01:10:53;20.35;;;11.60;;
46719;SDS011;32452;51.382;-0.002;2023-03-01T01:13:39;19.58;;;12.10;;
46719;SDS011;32452;51.382;-0.002;2023-03-01T01:16:26;19.90;;;11.90;;
46719;SDS011;32452;51.382;-0.002;2023-03-01T01:19:14;18.85;;;10.95;;
46719;SDS011;32452;51.382;-0.002;2023-03-01T01:21:59;20.80;;;12.27;;
46719;SDS011;32452;51.382;-0.002;2023-03-01T01:24:45;21.13;;;12.18;;
46719;SDS011;32452;51.382;-0.002;2023-03-01T01:27:30;21.27;;;12.45;;
46719;SDS011;32452;51.382;-0.002;2023-03-01T01:30:16;20.15;;;11.88;;
46719;SDS011;32452;51.382;-0.002;2023-03-01T01:33:02;20.65;;;12.30;;
46719;SDS011;32452;51.382;-0.002;2023-03-01T01:35:47;20.90;;;11.45;;
46719;SDS011;32452;51.382;-0.002;2023-03-01T01:38:33;22.95;;;12.68;;
46719;SDS011;32452;51.382;-0.002;2023-03-01T01:41:19;24.85;;;13.45;;
46719;SDS011;32452;51.382;-0.002;2023-03-01T01:44:22;22.45;;;12.68;;
46719;SDS011;32452;51.382;-0.002;2023-03-01T01:47:13;22.45;;;13.23;;
46719;SDS011;32452;51.382;-0.002;2023-03-01T01:50:02;21.45;;;12.90;;
46719;SDS011;32452;51.382;-0.002;2023-03-01T01:52:48;21.42;;;13.05;;
46719;SDS011;32452;51.382;-0.002;2023-03-01T01:55:36;25.55;;;12.85;;
46719;SDS011;32452;51.382;-0.002;2023-03-01T01:58:25;22.77;;;12.45;;
46719;SDS011;32452;51.382;-0.002;2023-03-01T02:01:12;23.33;;;12.93;;
46719;SDS011;32452;51.382;-0.002;2023-03-01T02:03:58;22.02;;;13.77;;
46719;SDS011;32452;51.382;-0.002;2023-03-01T02:06:46;21.50;;;12.60;;
46719;SDS011;32452;51.382;-0.002;2023-03-01T02:09:46;19.75;;;12.18;;
46719;SDS011;32452;51.382;-0.002;2023-03-01T02:12:33;21.92;;;13.20;;
46719;SDS011;32452;51.382;-0.002;2023-03-01T02:15:20;23.25;;;13.40;;
46719;SDS011;32452;51.382;-0.002;2023-03-01T02:18:07;21.33;;;13.48;;
46719;SDS011;32452;51.382;-0.002;2023-03-01T02:24:02;22.48;;;12.07;;
46719;SDS011;32452;51.382;-0.002;2023-03-01T02:27:01;23.42;;;13.07;;
46719;SDS011;32452;51.382;-0.002;2023-03-01T02:29:47;21.75;;;12.27;;
46719;SDS011;32452;51.382;-0.002;2023-03-01T02:32:32;21.55;;;12.10;;
46719;SDS011;32452;51.382;-0.002;2023-03-01T02:35:18;21.25;;;10.93;;
46719;SDS011;32452;51.382;-0.002;2023-03-01T02:38:06;20.05;;;11.57;;
46719;SDS011;32452;51.382;-0.002;2023-03-01T02:40:53;19.60;;;10.25;;
46719;SDS011;32452;51.382;-0.002;2023-03-01T02:43:41;17.92;;;10.07;;
46719;SDS011;32452;51.382;-0.002;2023-03-01T02:46:27;21.17;;;10.05;;
46719;SDS011;32452;51.382;-0.002;2023-03-01T02:49:21;15.88;;;8.93;;
46719;SDS011;32452;51.382;-0.002;2023-03-01T02:52:21;16.80;;;7.53;;
46719;SDS011;32452;51.382;-0.002;2023-03-01T02:55:10;14.68;;;6.57;;
46719;SDS011;32452;51.382;-0.002;2023-03-01T02:57:58;16.75;;;6.35;;
46719;SDS011;32452;51.382;-0.002;2023-03-01T03:00:46;14.57;;;6.45;;
46719;SDS011;32452;51.382;-0.002;2023-03-01T03:03:34;13.88;;;5.55;;
46719;SDS011;32452;51.382;-0.002;2023-03-01T03:06:20;12.30;;;5.35;;
46719;SDS011;32452;51.382;-0.002;2023-03-01T03:09:05;13.18;;;4.07;;
46719;SDS011;32452;51.382;-0.002;2023-03-01T03:11:50;12.73;;;4.72;;
46719;SDS011;32452;51.382;-0.002;2023-03-01T03:14:36;12.00;;;4.85;;
46719;SDS011;32452;51.382;-0.002;2023-03-01T03:17:21;10.60;;;4.15;;
46719;SDS011;32452;51.382;-0.002;2023-03-01T03:20:09;8.60;;;3.80;;
46719;SDS011;32452;51.382;-0.002;2023-03-01T03:22:57;9.40;;;4.15;;
46719;SDS011;32452;51.382;-0.002;2023-03-01T03:25:47;12.70;;;5.18;;
46719;SDS011;32452;51.382;-0.002;2023-03-01T03:28:34;10.02;;;3.83;;
46719;SDS011;32452;51.382;-0.002;2023-03-01T03:31:20;11.70;;;3.80;;
46719;SDS011;32452;51.382;-0.002;2023-03-01T03:34:05;9.85;;;3.20;;
46719;SDS011;32452;51.382;-0.002;2023-03-01T03:36:54;9.90;;;3.90;;
46719;SDS011;32452;51.382;-0.002;2023-03-01T03:39:46;9.48;;;4.20;;
46719;SDS011;32452;51.382;-0.002;2023-03-01T03:42:32;9.95;;;3.70;;
46719;SDS011;32452;51.382;-0.002;2023-03-01T03:45:17;13.85;;;3.70;;
46719;SDS011;32452;51.382;-0.002;2023-03-01T03:48:04;9.27;;;3.63;;
46719;SDS011;32452;51.382;-0.002;2023-03-01T03:50:55;11.45;;;3.72;;
46719;SDS011;32452;51.382;-0.002;2023-03-01T03:53:41;8.70;;;3.20;;
46719;SDS011;32452;51.382;-0.002;2023-03-01T03:56:27;9.80;;;4.30;;
46719;SDS011;32452;51.382;-0.002;2023-03-01T03:59:12;11.18;;;4.40;;
46719;SDS011;32452;51.382;-0.002;2023-03-01T04:01:58;8.93;;;3.53;;
46719;SDS011;32452;51.382;-0.002;2023-03-01T04:04:43;8.35;;;3.65;;
46719;SDS011;32452;51.382;-0.002;2023-03-01T04:07:29;9.13;;;3.13;;
46719;SDS011;32452;51.382;-0.002;2023-03-01T04:10:15;10.80;;;3.22;;
46719;SDS011;32452;51.382;-0.002;2023-03-01T04:13:01;10.88;;;3.15;;
46719;SDS011;32452;51.382;-0.002;2023-03-01T04:15:53;11.43;;;3.08;;
46719;SDS011;32452;51.382;-0.002;2023-03-01T04:18:39;7.43;;;3.28;;
46719;SDS011;32452;51.382;-0.002;2023-03-01T04:21:24;8.50;;;2.92;;
46719;SDS011;32452;51.382;-0.002;2023-03-01T04:24:10;7.60;;;3.03;;
46719;SDS011;32452;51.382;-0.002;2023-03-01T04:26:55;6.95;;;2.95;;
46719;SDS011;32452;51.382;-0.002;2023-03-01T04:29:41;11.10;;;3.10;;
46719;SDS011;32452;51.382;-0.002;2023-03-01T04:32:26;6.47;;;3.00;;
46719;SDS011;32452;51.382;-0.002;2023-03-01T04:35:12;10.00;;;3.03;;
46719;SDS011;32452;51.382;-0.002;2023-03-01T04:37:58;10.98;;;3.35;;
46719;SDS011;32452;51.382;-0.002;2023-03-01T04:40:43;5.28;;;2.60;;
46719;SDS011;32452;51.382;-0.002;2023-03-01T04:43:28;7.20;;;2.80;;
46719;SDS011;32452;51.382;-0.002;2023-03-01T04:46:15;7.60;;;3.20;;
46719;SDS011;32452;51.382;-0.002;2023-03-01T04:49:02;9.70;;;3.13;;
46719;SDS011;32452;51.382;-0.002;2023-03-01T04:51:47;7.43;;;3.08;;
46719;SDS011;32452;51.382;-0.002;2023-03-01T04:54:33;10.35;;;2.85;;
46719;SDS011;32452;51.382;-0.002;2023-03-01T04:57:19;5.75;;;2.70;;
46719;SDS011;32452;51.382;-0.002;2023-03-01T05:00:06;7.30;;;3.28;;
46719;SDS011;32452;51.382;-0.002;2023-03-01T05:03:04;8.05;;;2.90;;
46719;SDS011;32452;51.382;-0.002;2023-03-01T05:05:50;5.72;;;2.60;;
46719;SDS011;32452;51.382;-0.002;2023-03-01T05:08:40;7.65;;;3.10;;
46719;SDS011;32452;51.382;-0.002;2023-03-01T05:11:26;14.25;;;4.75;;
46719;SDS011;32452;51.382;-0.002;2023-03-01T05:14:15;6.85;;;2.75;;
46719;SDS011;32452;51.382;-0.002;2023-03-01T05:17:00;6.53;;;3.08;;
46719;SDS011;32452;51.382;-0.002;2023-03-01T05:19:49;7.82;;;2.50;;
46719;SDS011;32452;51.382;-0.002;2023-03-01T05:22:35;8.00;;;3.10;;
46719;SDS011;32452;51.382;-0.002;2023-03-01T05:25:20;7.70;;;2.47;;
46719;SDS011;32452;51.382;-0.002;2023-03-01T05:28:07;9.43;;;2.85;;
46719;SDS011;32452;51.382;-0.002;2023-03-01T05:30:57;4.85;;;3.00;;
46719;SDS011;32452;51.382;-0.002;2023-03-01T05:33:43;8.45;;;2.53;;
46719;SDS011;32452;51.382;-0.002;2023-03-01T05:36:28;5.95;;;2.60;;
46719;SDS011;32452;51.382;-0.002;2023-03-01T05:39:14;5.38;;;2.70;;
46719;SDS011;32452;51.382;-0.002;2023-03-01T05:42:01;5.35;;;2.33;;
46719;SDS011;32452;51.382;-0.002;2023-03-01T05:44:46;6.65;;;2.45;;
46719;SDS011;32452;51.382;-0.002;2023-03-01T05:47:32;7.78;;;2.85;;
46719;SDS011;32452;51.382;-0.002;2023-03-01T05:50:21;4.68;;;2.47;;
46719;SDS011;32452;51.382;-0.002;2023-03-01T05:53:11;9.48;;;2.60;;
46719;SDS011;32452;51.382;-0.002;2023-03-01T05:55:58;6.57;;;3.05;;
46719;SDS011;32452;51.382;-0.002;2023-03-01T05:58:44;6.05;;;2.78;;
46719;SDS011;32452;51.382;-0.002;2023-03-01T06:01:31;5.13;;;2.97;;
46719;SDS011;32452;51.382;-0.002;2023-03-01T06:04:17;7.35;;;2.80;;
46719;SDS011;32452;51.382;-0.002;2023-03-01T06:07:02;6.20;;;2.75;;
46719;SDS011;32452;51.382;-0.002;2023-03-01T06:09:48;15.07;;;3.63;;
46719;SDS011;32452;51.382;-0.002;2023-03-01T06:12:34;8.60;;;3.67;;
46719;SDS011;32452;51.382;-0.002;2023-03-01T06:15:20;7.05;;;3.35;;
46719;SDS011;32452;51.382;-0.002;2023-03-01T06:18:06;5.47;;;3.10;;
46719;SDS011;32452;51.382;-0.002;2023-03-01T06:20:52;7.63;;;3.70;;
46719;SDS011;32452;51.382;-0.002;2023-03-01T06:23:39;6.25;;;3.00;;
46719;SDS011;32452;51.382;-0.002;2023-03-01T06:26:24;6.53;;;3.28;;
46719;SDS011;32452;51.382;-0.002;2023-03-01T06:29:10;6.93;;;3.08;;
46719;SDS011;32452;51.382;-0.002;2023-03-01T06:31:56;6.43;;;2.97;;
46719;SDS011;32452;51.382;-0.002;2023-03-01T06:34:41;9.93;;;2.95;;
46719;SDS011;32452;51.382;-0.002;2023-03-01T06:37:27;7.63;;;3.90;;
46719;SDS011;32452;51.382;-0.002;2023-03-01T06:40:13;9.98;;;4.40;;
46719;SDS011;32452;51.382;-0.002;2023-03-01T06:42:59;8.98;;;4.13;;
46719;SDS011;32452;51.382;-0.002;2023-03-01T06:45:45;10.75;;;3.67;;
46719;SDS011;32452;51.382;-0.002;2023-03-01T06:48:30;9.75;;;3.95;;
46719;SDS011;32452;51.382;-0.002;2023-03-01T06:51:16;10.65;;;4.18;;
46719;SDS011;32452;51.382;-0.002;2023-03-01T06:54:03;9.40;;;4.38;;
46719;SDS011;32452;51.382;-0.002;2023-03-01T06:56:49;8.48;;;4.35;;
46719;SDS011;32452;51.382;-0.002;2023-03-01T06:59:35;11.90;;;5.40;;
46719;SDS011;32452;51.382;-0.002;2023-03-01T07:02:21;10.32;;;4.85;;
46719;SDS011;32452;51.382;-0.002;2023-03-01T07:05:07;10.73;;;5.43;;
46719;SDS011;32452;51.382;-0.002;2023-03-01T07:07:53;9.55;;;4.68;;
46719;SDS011;32452;51.382;-0.002;2023-03-01T07:10:39;10.07;;;5.70;;
46719;SDS011;32452;51.382;-0.002;2023-03-01T07:13:25;14.65;;;5.80;;
46719;SDS011;32452;51.382;-0.002;2023-03-01T07:16:10;11.98;;;5.10;;
46719;SDS011;32452;51.382;-0.002;2023-03-01T07:18:56;11.27;;;4.45;;
46719;SDS011;32452;51.382;-0.002;2023-03-01T07:21:43;10.82;;;4.45;;
46719;SDS011;32452;51.382;-0.002;2023-03-01T07:24:29;10.23;;;4.28;;
46719;SDS011;32452;51.382;-0.002;2023-03-01T07:27:14;8.95;;;3.85;;
46719;SDS011;32452;51.382;-0.002;2023-03-01T07:29:59;11.70;;;4.13;;
46719;SDS011;32452;51.382;-0.002;2023-03-01T07:32:45;8.15;;;3.08;;
46719;SDS011;32452;51.382;-0.002;2023-03-01T07:35:31;10.18;;;3.47;;
46719;SDS011;32452;51.382;-0.002;2023-03-01T07:38:18;6.38;;;2.70;;
46719;SDS011;32452;51.382;-0.002;2023-03-01T07:41:03;8.07;;;3.25;;
46719;SDS011;32452;51.382;-0.002;2023-03-01T07:43:50;6.25;;;3.05;;
46719;SDS011;32452;51.382;-0.002;2023-03-01T07:46:36;9.73;;;3.85;;
46719;SDS011;32452;51.382;-0.002;2023-03-01T07:49:22;7.40;;;3.22;;
46719;SDS011;32452;51.382;-0.002;2023-03-01T07:52:09;5.93;;;3.17;;
46719;SDS011;32452;51.382;-0.002;2023-03-01T07:54:56;9.45;;;3.13;;
46719;SDS011;32452;51.382;-0.002;2023-03-01T07:57:42;6.68;;;2.90;;
46719;SDS011;32452;51.382;-0.002;2023-03-01T08:00:27;8.38;;;3.40;;
46719;SDS011;32452;51.382;-0.002;2023-03-01T08:03:13;8.57;;;3.17;;
46719;SDS011;32452;51.382;-0.002;2023-03-01T08:05:59;8.88;;;2.80;;
46719;SDS011;32452;51.382;-0.002;2023-03-01T08:08:45;6.38;;;3.10;;
46719;SDS011;32452;51.382;-0.002;2023-03-01T08:11:31;7.50;;;2.70;;
46719;SDS011;32452;51.382;-0.002;2023-03-01T08:14:16;7.72;;;3.00;;
46719;SDS011;32452;51.382;-0.002;2023-03-01T08:17:02;6.90;;;2.67;;
46719;SDS011;32452;51.382;-0.002;2023-03-01T08:19:48;8.20;;;2.60;;
46719;SDS011;32452;51.382;-0.002;2023-03-01T08:22:33;6.38;;;2.72;;
46719;SDS011;32452;51.382;-0.002;2023-03-01T08:25:19;12.23;;;2.60;;
46719;SDS011;32452;51.382;-0.002;2023-03-01T08:28:05;7.70;;;2.63;;
46719;SDS011;32452;51.382;-0.002;2023-03-01T08:30:50;7.93;;;3.55;;
46719;SDS011;32452;51.382;-0.002;2023-03-01T08:33:35;8.93;;;2.85;;
46719;SDS011;32452;51.382;-0.002;2023-03-01T08:36:22;10.95;;;2.50;;
46719;SDS011;32452;51.382;-0.002;2023-03-01T08:39:10;12.88;;;4.22;;
46719;SDS011;32452;51.382;-0.002;2023-03-01T08:41:57;9.32;;;2.70;;
46719;SDS011;32452;51.382;-0.002;2023-03-01T08:44:43;7.88;;;2.20;;
46719;SDS011;32452;51.382;-0.002;2023-03-01T08:47:30;5.07;;;2.05;;
46719;SDS011;32452;51.382;-0.002;2023-03-01T08:50:18;5.70;;;2.22;;
46719;SDS011;32452;51.382;-0.002;2023-03-01T08:53:04;7.30;;;1.98;;
46719;SDS011;32452;51.382;-0.002;2023-03-01T08:55:49;6.45;;;2.28;;
46719;SDS011;32452;51.382;-0.002;2023-03-01T08:58:35;4.82;;;2.20;;
46719;SDS011;32452;51.382;-0.002;2023-03-01T09:01:21;6.47;;;1.90;;
46719;SDS011;32452;51.382;-0.002;2023-03-01T09:04:07;6.85;;;1.88;;
46719;SDS011;32452;51.382;-0.002;2023-03-01T09:06:53;10.05;;;2.33;;
46719;SDS011;32452;51.382;-0.002;2023-03-01T09:09:38;9.00;;;1.85;;
46719;SDS011;32452;51.382;-0.002;2023-03-01T09:12:23;5.20;;;1.90;;
46719;SDS011;32452;51.382;-0.002;2023-03-01T09:15:09;4.53;;;2.10;;
46719;SDS011;32452;51.382;-0.002;2023-03-01T09:17:55;5.50;;;2.13;;
46719;SDS011;32452;51.382;-0.002;2023-03-01T09:20:40;4.38;;;1.63;;
46719;SDS011;32452;51.382;-0.002;2023-03-01T09:23:26;5.38;;;1.60;;
46719;SDS011;32452;51.382;-0.002;2023-03-01T09:26:13;5.40;;;2.08;;
46719;SDS011;32452;51.382;-0.002;2023-03-01T09:29:04;6.20;;;2.20;;
46719;SDS011;32452;51.382;-0.002;2023-03-01T09:31:49;7.32;;;1.98;;
46719;SDS011;32452;51.382;-0.002;2023-03-01T09:34:35;5.78;;;1.80;;
46719;SDS011;32452;51.382;-0.002;2023-03-01T09:37:41;4.13;;;1.90;;
46719;SDS011;32452;51.382;-0.002;2023-03-01T09:40:29;3.80;;;1.85;;
46719;SDS011;32452;51.382;-0.002;2023-03-01T09:43:23;5.80;;;1.80;;
46719;SDS011;32452;51.382;-0.002;2023-03-01T09:46:32;7.13;;;1.88;;
46719;SDS011;32452;51.382;-0.002;2023-03-01T09:49:26;5.10;;;2.00;;
46719;SDS011;32452;51.382;-0.002;2023-03-01T09:55:11;5.35;;;2.25;;
46719;SDS011;32452;51.382;-0.002;2023-03-01T10:10:34;8.00;;;2.40;;
46719;SDS011;32452;51.382;-0.002;2023-03-01T10:13:42;5.57;;;1.95;;
46719;SDS011;32452;51.382;-0.002;2023-03-01T10:16:43;5.25;;;1.85;;
46719;SDS011;32452;51.382;-0.002;2023-03-01T10:19:43;5.20;;;1.65;;
46719;SDS011;32452;51.382;-0.002;2023-03-01T10:22:30;4.65;;;1.60;;
46719;SDS011;32452;51.382;-0.002;2023-03-01T10:25:26;3.35;;;1.35;;
46719;SDS011;32452;51.382;-0.002;2023-03-01T10:28:29;6.00;;;1.50;;
46719;SDS011;32452;51.382;-0.002;2023-03-01T10:31:26;4.55;;;1.30;;
46719;SDS011;32452;51.382;-0.002;2023-03-01T10:34:27;3.97;;;1.50;;
46719;SDS011;32452;51.382;-0.002;2023-03-01T10:37:16;3.97;;;1.40;;
46719;SDS011;32452;51.382;-0.002;2023-03-01T10:40:07;5.10;;;1.58;;
46719;SDS011;32452;51.382;-0.002;2023-03-01T10:42:54;3.78;;;1.20;;
46719;SDS011;32452;51.382;-0.002;2023-03-01T10:45:43;4.65;;;1.02;;
46719;SDS011;32452;51.382;-0.002;2023-03-01T10:48:29;0.80;;;0.73;;
46719;SDS011;32452;51.382;-0.002;2023-03-01T10:51:17;3.88;;;1.15;;
46719;SDS011;32452;51.382;-0.002;2023-03-01T10:57:27;2.83;;;1.05;;
46719;SDS011;32452;51.382;-0.002;2023-03-01T11:00:23;2.08;;;0.65;;
46719;SDS011;32452;51.382;-0.002;2023-03-01T11:03:11;4.90;;;1.17;;
46719;SDS011;32452;51.382;-0.002;2023-03-01T11:08:50;4.20;;;1.00;;
46719;SDS011;32452;51.382;-0.002;2023-03-01T11:11:36;3.60;;;0.93;;
46719;SDS011;32452;51.382;-0.002;2023-03-01T11:14:23;1.83;;;0.82;;
46719;SDS011;32452;51.382;-0.002;2023-03-01T11:23:03;1.92;;;0.65;;
46719;SDS011;32452;51.382;-0.002;2023-03-01T11:26:00;3.60;;;0.93;;
46719;SDS011;32452;51.382;-0.002;2023-03-01T11:28:50;5.25;;;1.08;;
46719;SDS011;32452;51.382;-0.002;2023-03-01T11:31:41;3.03;;;1.20;;
46719;SDS011;32452;51.382;-0.002;2023-03-01T11:38:12;1.92;;;0.88;;
46719;SDS011;32452;51.382;-0.002;2023-03-01T11:44:22;3.60;;;1.00;;
46719;SDS011;32452;51.382;-0.002;2023-03-01T11:56:55;1.30;;;0.70;;
46719;SDS011;32452;51.382;-0.002;2023-03-01T11:59:32;1.85;;;0.77;;
46719;SDS011;32452;51.382;-0.002;2023-03-01T12:12:11;2.20;;;0.63;;
46719;SDS011;32452;51.382;-0.002;2023-03-01T12:18:57;4.03;;;1.58;;
46719;SDS011;32452;51.382;-0.002;2023-03-01T12:28:11;6.88;;;1.10;;
46719;SDS011;32452;51.382;-0.002;2023-03-01T12:31:25;2.05;;;1.02;;
46719;SDS011;32452;51.382;-0.002;2023-03-01T12:38:02;2.38;;;1.25;;
46719;SDS011;32452;51.382;-0.002;2023-03-01T12:41:12;3.58;;;1.25;;
46719;SDS011;32452;51.382;-0.002;2023-03-01T12:50:19;2.50;;;1.23;;
46719;SDS011;32452;51.382;-0.002;2023-03-01T12:53:07;7.18;;;1.63;;
46719;SDS011;32452;51.382;-0.002;2023-03-01T12:56:06;4.40;;;1.40;;
46719;SDS011;32452;51.382;-0.002;2023-03-01T12:59:07;1.60;;;0.98;;
46719;SDS011;32452;51.382;-0.002;2023-03-01T13:02:05;3.45;;;1.20;;
46719;SDS011;32452;51.382;-0.002;2023-03-01T13:11:27;3.05;;;1.23;;
46719;SDS011;32452;51.382;-0.002;2023-03-01T13:17:20;2.95;;;1.52;;
46719;SDS011;32452;51.382;-0.002;2023-03-01T13:20:19;3.17;;;1.92;;
46719;SDS011;32452;51.382;-0.002;2023-03-01T13:28:54;3.72;;;1.70;;
46719;SDS011;32452;51.382;-0.002;2023-03-01T13:34:40;5.20;;;1.40;;
46719;SDS011;32452;51.382;-0.002;2023-03-01T13:37:35;2.70;;;1.33;;
46719;SDS011;32452;51.382;-0.002;2023-03-01T13:46:20;2.30;;;1.20;;
46719;SDS011;32452;51.382;-0.002;2023-03-01T13:49:21;6.55;;;1.65;;
46719;SDS011;32452;51.382;-0.002;2023-03-01T13:55:20;5.30;;;2.47;;
46719;SDS011;32452;51.382;-0.002;2023-03-01T13:58:30;3.15;;;1.60;;
46719;SDS011;32452;51.382;-0.002;2023-03-01T14:04:19;7.43;;;1.70;;
46719;SDS011;32452;51.382;-0.002;2023-03-01T14:07:39;2.45;;;1.40;;
46719;SDS011;32452;51.382;-0.002;2023-03-01T14:10:16;5.75;;;1.17;;
46719;SDS011;32452;51.382;-0.002;2023-03-01T14:16:32;5.70;;;1.42;;
46719;SDS011;32452;51.382;-0.002;2023-03-01T14:19:46;8.82;;;2.10;;
46719;SDS011;32452;51.382;-0.002;2023-03-01T14:22:33;3.10;;;1.58;;
46719;SDS011;32452;51.382;-0.002;2023-03-01T14:31:02;3.13;;;1.25;;
46719;SDS011;32452;51.382;-0.002;2023-03-01T14:33:54;6.53;;;1.90;;
46719;SDS011;32452;51.382;-0.002;2023-03-01T14:36:40;6.38;;;1.70;;
46719;SDS011;32452;51.382;-0.002;2023-03-01T14:39:26;1.90;;;1.30;;
46719;SDS011;32452;51.382;-0.002;2023-03-01T14:42:12;2.30;;;1.25;;
46719;SDS011;32452;51.382;-0.002;2023-03-01T14:45:00;5.43;;;1.70;;
46719;SDS011;32452;51.382;-0.002;2023-03-01T14:47:47;4.68;;;1.50;;
46719;SDS011;32452;51.382;-0.002;2023-03-01T14:50:40;3.20;;;1.40;;
46719;SDS011;32452;51.382;-0.002;2023-03-01T14:53:27;8.50;;;2.50;;
46719;SDS011;32452;51.382;-0.002;2023-03-01T14:56:21;6.25;;;1.80;;
46719;SDS011;32452;51.382;-0.002;2023-03-01T14:59:07;9.20;;;2.00;;
46719;SDS011;32452;51.382;-0.002;2023-03-01T15:01:55;9.20;;;2.42;;
46719;SDS011;32452;51.382;-0.002;2023-03-01T15:04:43;7.10;;;1.90;;
46719;SDS011;32452;51.382;-0.002;2023-03-01T15:07:33;7.85;;;2.35;;
46719;SDS011;32452;51.382;-0.002;2023-03-01T15:10:24;4.80;;;1.98;;
46719;SDS011;32452;51.382;-0.002;2023-03-01T15:13:13;5.80;;;1.73;;
46719;SDS011;32452;51.382;-0.002;2023-03-01T15:16:15;3.95;;;1.60;;
46719;SDS011;32452;51.382;-0.002;2023-03-01T15:19:05;3.75;;;1.70;;
46719;SDS011;32452;51.382;-0.002;2023-03-01T15:21:51;5.07;;;1.45;;
46719;SDS011;32452;51.382;-0.002;2023-03-01T15:24:37;4.97;;;1.60;;
46719;SDS011;32452;51.382;-0.002;2023-03-01T15:27:24;4.63;;;1.50;;
46719;SDS011;32452;51.382;-0.002;2023-03-01T15:30:18;4.40;;;3.22;;
46719;SDS011;32452;51.382;-0.002;2023-03-01T15:33:18;5.32;;;2.00;;
46719;SDS011;32452;51.382;-0.002;2023-03-01T15:48:13;5.50;;;1.83;;
46719;SDS011;32452;51.382;-0.002;2023-03-01T15:51:03;4.78;;;1.75;;
46719;SDS011;32452;51.382;-0.002;2023-03-01T15:53:50;7.53;;;2.13;;
46719;SDS011;32452;51.382;-0.002;2023-03-01T15:56:38;3.75;;;2.20;;
46719;SDS011;32452;51.382;-0.002;2023-03-01T15:59:24;3.90;;;2.05;;
46719;SDS011;32452;51.382;-0.002;2023-03-01T16:02:10;4.70;;;1.60;;
46719;SDS011;32452;51.382;-0.002;2023-03-01T16:04:59;7.28;;;2.47;;
46719;SDS011;32452;51.382;-0.002;2023-03-01T16:07:45;5.78;;;1.80;;
46719;SDS011;32452;51.382;-0.002;2023-03-01T16:10:30;7.85;;;1.92;;
46719;SDS011;32452;51.382;-0.002;2023-03-01T16:13:18;9.93;;;2.05;;
46719;SDS011;32452;51.382;-0.002;2023-03-01T16:16:04;4.28;;;1.90;;
46719;SDS011;32452;51.382;-0.002;2023-03-01T16:18:49;5.55;;;2.05;;
46719;SDS011;32452;51.382;-0.002;2023-03-01T16:21:38;5.72;;;2.90;;
46719;SDS011;32452;51.382;-0.002;2023-03-01T16:24:24;7.38;;;3.08;;
46719;SDS011;32452;51.382;-0.002;2023-03-01T16:27:10;10.60;;;3.50;;
46719;SDS011;32452;51.382;-0.002;2023-03-01T16:29:56;6.80;;;2.63;;
46719;SDS011;32452;51.382;-0.002;2023-03-01T16:32:42;4.65;;;2.28;;
46719;SDS011;32452;51.382;-0.002;2023-03-01T16:35:29;6.30;;;2.22;;
46719;SDS011;32452;51.382;-0.002;2023-03-01T16:38:14;7.65;;;2.40;;
46719;SDS011;32452;51.382;-0.002;2023-03-01T16:41:00;5.88;;;2.20;;
46719;SDS011;32452;51.382;-0.002;2023-03-01T16:43:48;3.78;;;1.65;;
46719;SDS011;32452;51.382;-0.002;2023-03-01T16:46:35;6.07;;;2.47;;
46719;SDS011;32452;51.382;-0.002;2023-03-01T16:49:21;11.02;;;2.13;;
46719;SDS011;32452;51.382;-0.002;2023-03-01T16:52:06;4.53;;;2.10;;
46719;SDS011;32452;51.382;-0.002;2023-03-01T16:54:52;7.28;;;3.08;;
46719;SDS011;32452;51.382;-0.002;2023-03-01T16:57:38;8.57;;;2.22;;
46719;SDS011;32452;51.382;-0.002;2023-03-01T17:00:24;3.35;;;1.80;;
46719;SDS011;32452;51.382;-0.002;2023-03-01T17:03:10;5.53;;;1.90;;
46719;SDS011;32452;51.382;-0.002;2023-03-01T17:05:55;6.00;;;2.33;;
46719;SDS011;32452;51.382;-0.002;2023-03-01T17:08:41;4.38;;;1.75;;
46719;SDS011;32452;51.382;-0.002;2023-03-01T17:11:27;7.00;;;2.08;;
46719;SDS011;32452;51.382;-0.002;2023-03-01T17:14:13;6.70;;;2.17;;
46719;SDS011;32452;51.382;-0.002;2023-03-01T17:17:00;3.63;;;1.35;;
46719;SDS011;32452;51.382;-0.002;2023-03-01T17:19:47;5.50;;;1.40;;
46719;SDS011;32452;51.382;-0.002;2023-03-01T17:22:33;3.03;;;1.48;;
46719;SDS011;32452;51.382;-0.002;2023-03-01T17:25:19;3.33;;;1.27;;
46719;SDS011;32452;51.382;-0.002;2023-03-01T17:28:04;8.52;;;2.88;;
46719;SDS011;32452;51.382;-0.002;2023-03-01T17:30:50;8.40;;;1.70;;
46719;SDS011;32452;51.382;-0.002;2023-03-01T17:33:36;7.15;;;1.73;;
46719;SDS011;32452;51.382;-0.002;2023-03-01T17:36:21;5.15;;;1.92;;
46719;SDS011;32452;51.382;-0.002;2023-03-01T17:39:07;4.90;;;1.75;;
46719;SDS011;32452;51.382;-0.002;2023-03-01T17:41:53;5.22;;;2.15;;
46719;SDS011;32452;51.382;-0.002;2023-03-01T17:44:38;4.82;;;2.30;;
46719;SDS011;32452;51.382;-0.002;2023-03-01T17:47:26;5.82;;;2.20;;
46719;SDS011;32452;51.382;-0.002;2023-03-01T17:50:12;7.40;;;1.83;;
46719;SDS011;32452;51.382;-0.002;2023-03-01T17:52:57;5.78;;;2.53;;
46719;SDS011;32452;51.382;-0.002;2023-03-01T17:55:43;8.50;;;2.65;;
46719;SDS011;32452;51.382;-0.002;2023-03-01T17:58:29;3.70;;;1.80;;
46719;SDS011;32452;51.382;-0.002;2023-03-01T18:01:17;5.90;;;2.22;;
46719;SDS011;32452;51.382;-0.002;2023-03-01T18:04:04;5.07;;;1.85;;
46719;SDS011;32452;51.382;-0.002;2023-03-01T18:06:52;4.03;;;2.08;;
46719;SDS011;32452;51.382;-0.002;2023-03-01T18:09:38;4.57;;;1.70;;
46719;SDS011;32452;51.382;-0.002;2023-03-01T18:12:23;7.57;;;1.90;;
46719;SDS011;32452;51.382;-0.002;2023-03-01T18:15:09;6.75;;;2.08;;
46719;SDS011;32452;51.382;-0.002;2023-03-01T18:17:55;6.22;;;2.30;;
46719;SDS011;32452;51.382;-0.002;2023-03-01T18:20:40;3.15;;;1.80;;
46719;SDS011;32452;51.382;-0.002;2023-03-01T18:23:26;6.57;;;2.28;;
46719;SDS011;32452;51.382;-0.002;2023-03-01T18:26:13;5.50;;;2.28;;
46719;SDS011;32452;51.382;-0.002;2023-03-01T18:29:01;3.97;;;2.20;;
46719;SDS011;32452;51.382;-0.002;2023-03-01T18:31:48;4.03;;;2.17;;
46719;SDS011;32452;51.382;-0.002;2023-03-01T18:34:35;6.47;;;2.58;;
46719;SDS011;32452;51.382;-0.002;2023-03-01T18:37:20;5.13;;;2.30;;
46719;SDS011;32452;51.382;-0.002;2023-03-01T18:40:06;5.68;;;2.40;;